Time;durP1;ratioP1;P1;durP2;ratioP2;P2;SDS_P1;SDS_P2;PMS_P1;PMS_P2;Temp;Humidity;BMP_temperature;BMP_pressure;BME280_temperature;BME280_humidity;BME280_pressure;Samples;Min_cycle;Max_cycle;Signal;HPM_P1;HPM_P2
2022/01/20 00:02:11;;;;;;;6.80;2.77;;;;;;;2.79;100.00;100725.53;5046651;28;20960;-50
2022/01/20 00:04:44;;;;;;;12.07;3.47;;;;;;;2.86;100.00;100719.69;5046787;28;20235;-50
2022/01/20 00:07:32;;;;;;;11.57;2.63;;;;;;;2.87;100.00;100734.41;5056705;28;20320;-53
2022/01/20 00:26:47;;;;;;;9.67;3.20;;;;;;;2.85;100.00;100743.00;5059861;28;20303;-52
2022/01/20 00:29:21;;;;;;;6.03;2.90;;;;;;;2.89;100.00;100746.56;5058735;28;20229;-52
2022/01/20 00:32:02;;;;;;;11.53;4.40;;;;;;;2.94;100.00;100739.78;5063630;28;20261;-51
2022/01/20 00:34:52;;;;;;;9.77;3.40;;;;;;;2.87;100.00;100744.78;5059700;28;20229;-51
2022/01/20 00:37:17;;;;;;;12.20;4.47;;;;;;;2.86;100.00;100749.91;5061596;28;20247;-50
2022/01/20 00:39:45;;;;;;;12.93;4.27;;;;;;;2.89;100.00;100737.06;5064887;28;20705;-52
2022/01/20 00:42:11;;;;;;;11.70;3.97;;;;;;;2.94;100.00;100732.00;5063553;28;20284;-50
2022/01/20 00:44:38;;;;;;;12.13;3.80;;;;;;;3.15;100.00;100737.81;5065577;28;20300;-48
2022/01/20 00:47:04;;;;;;;11.30;4.07;;;;;;;3.24;100.00;100738.09;5063946;28;20269;-55
2022/01/20 00:49:31;;;;;;;14.60;5.13;;;;;;;3.25;100.00;100738.97;5049058;28;20258;-52
2022/01/20 00:51:57;;;;;;;8.60;4.23;;;;;;;3.33;100.00;100743.53;5053290;28;20315;-51
2022/01/20 00:54:23;;;;;;;19.60;3.77;;;;;;;3.32;100.00;100744.38;5054515;28;20311;-51
2022/01/20 00:56:51;;;;;;;8.77;3.00;;;;;;;3.37;100.00;100741.91;5062814;28;20250;-52
2022/01/20 00:59:17;;;;;;;17.93;3.30;;;;;;;3.29;100.00;100741.69;5060100;28;20649;-49
2022/01/20 01:01:44;;;;;;;10.33;3.33;;;;;;;3.33;100.00;100753.94;5063942;28;21179;-52
2022/01/20 01:04:10;;;;;;;9.80;2.73;;;;;;;3.27;100.00;100758.06;5064523;28;20266;-52
2022/01/20 01:06:51;;;;;;;9.67;3.07;;;;;;;3.24;100.00;100766.63;5059397;28;20378;-52
2022/01/20 01:09:18;;;;;;;12.70;2.50;;;;;;;3.21;100.00;100761.34;5053862;28;20288;-51
2022/01/20 01:11:46;;;;;;;9.83;2.67;;;;;;;3.21;100.00;100769.13;5065239;28;20256;-53
2022/01/20 01:14:16;;;;;;;16.03;2.37;;;;;;;3.12;100.00;100761.06;5061045;28;20240;-52
2022/01/20 01:20:05;;;;;;;5.30;2.57;;;;;;;3.06;100.00;100751.41;5057645;28;20270;-50
2022/01/20 01:22:29;;;;;;;5.43;1.90;;;;;;;3.03;100.00;100743.53;5036114;28;20279;-53
2022/01/20 01:24:56;;;;;;;14.10;3.30;;;;;;;2.95;100.00;100764.88;5041536;28;20245;-53
2022/01/20 01:27:24;;;;;;;13.90;3.13;;;;;;;2.93;100.00;100767.41;5044050;28;20239;-53
2022/01/20 01:30:06;;;;;;;13.10;3.00;;;;;;;3.02;100.00;100774.59;5034940;28;20293;-52
2022/01/20 01:32:42;;;;;;;15.63;4.00;;;;;;;2.94;100.00;100787.31;5051759;28;20352;-56
2022/01/20 01:35:10;;;;;;;10.13;3.50;;;;;;;3.06;100.00;100784.25;5055209;28;20232;-52
2022/01/20 01:38:24;;;;;;;11.83;3.93;;;;;;;3.15;100.00;100794.00;5059742;28;20247;-52
2022/01/20 01:40:28;;;;;;;18.77;3.73;;;;;;;3.19;100.00;100785.47;5055606;28;20330;-53
2022/01/20 01:42:56;;;;;;;14.30;2.97;;;;;;;3.26;100.00;100787.41;5062489;28;20238;-52
2022/01/20 01:45:28;;;;;;;9.17;3.10;;;;;;;3.21;100.00;100789.00;5058963;28;20244;-53
2022/01/20 01:47:55;;;;;;;15.50;3.20;;;;;;;3.23;100.00;100795.09;5061476;28;20246;-52
2022/01/20 01:50:21;;;;;;;16.57;3.77;;;;;;;3.19;100.00;100780.28;5063348;28;20258;-54
2022/01/20 01:52:48;;;;;;;10.50;3.00;;;;;;;3.15;100.00;100781.03;5061962;28;20747;-50
2022/01/20 01:55:15;;;;;;;10.17;2.63;;;;;;;3.06;100.00;100781.66;5056961;28;20311;-52
2022/01/20 01:57:41;;;;;;;10.80;2.87;;;;;;;2.98;100.00;100788.28;5056249;28;20238;-52
2022/01/20 02:00:10;;;;;;;11.60;3.10;;;;;;;3.08;100.00;100796.41;5062104;28;20315;-51
2022/01/20 02:02:38;;;;;;;13.37;2.40;;;;;;;3.10;100.00;100791.28;5046047;28;20246;-52
2022/01/20 02:05:06;;;;;;;7.00;1.93;;;;;;;3.03;100.00;100773.78;5061858;28;20241;-51
2022/01/20 02:08:09;;;;;;;12.13;2.67;;;;;;;3.06;98.94;100781.66;5059126;28;20325;-52
2022/01/20 02:18:51;;;;;;;9.83;3.40;;;;;;;2.99;98.44;100783.19;5059598;28;20328;-54
2022/01/20 02:21:19;;;;;;;12.13;4.83;;;;;;;3.03;96.38;100786.75;5062286;28;20245;-50
2022/01/20 02:23:46;;;;;;;4.57;2.80;;;;;;;2.91;95.93;100787.22;5061532;28;20254;-48
2022/01/20 02:26:13;;;;;;;9.40;2.60;;;;;;;2.90;95.42;100787.19;5054597;28;20490;-57
2022/01/20 02:28:39;;;;;;;9.67;2.33;;;;;;;2.95;94.13;100777.81;5061493;28;20310;-51
2022/01/20 02:31:06;;;;;;;6.97;2.03;;;;;;;2.91;95.12;100781.16;5056508;28;20245;-50
2022/01/20 02:33:33;;;;;;;13.00;2.47;;;;;;;2.84;95.11;100788.78;5064073;28;20242;-49
2022/01/20 02:36:04;;;;;;;9.23;2.57;;;;;;;2.92;95.49;100780.34;5064994;28;20303;-50
2022/01/20 02:38:36;;;;;;;8.83;3.13;;;;;;;2.92;94.70;100770.88;5061668;28;20227;-52
2022/01/20 02:46:32;;;;;;;4.93;2.43;;;;;;;2.78;93.46;100761.78;5053488;28;20245;-52
2022/01/20 02:48:59;;;;;;;10.30;2.40;;;;;;;2.71;94.26;100765.91;5060648;28;20229;-50
2022/01/20 02:51:25;;;;;;;11.27;2.17;;;;;;;2.65;93.36;100760.50;5063034;28;20238;-51
2022/01/20 02:53:53;;;;;;;15.33;2.63;;;;;;;2.62;94.16;100761.28;5056724;28;20250;-52
2022/01/20 02:56:20;;;;;;;9.13;3.40;;;;;;;2.63;93.60;100759.56;5063657;28;20315;-51
2022/01/20 02:58:46;;;;;;;10.80;3.20;;;;;;;2.46;92.24;100742.59;5055809;28;20378;-51
2022/01/20 03:01:13;;;;;;;10.30;2.20;;;;;;;2.42;93.17;100743.34;5063944;28;20238;-52
2022/01/20 03:03:39;;;;;;;9.60;2.40;;;;;;;2.38;92.84;100740.66;5065047;28;20390;-51
2022/01/20 03:06:05;;;;;;;4.10;1.57;;;;;;;2.33;92.17;100747.41;5060444;28;20272;-50
2022/01/20 03:08:33;;;;;;;6.50;1.80;;;;;;;2.36;93.91;100741.47;5056264;28;20235;-52
2022/01/20 03:11:01;;;;;;;19.03;2.90;;;;;;;2.37;94.00;100728.53;5062351;28;20719;-51
2022/01/20 03:13:27;;;;;;;6.10;1.73;;;;;;;2.35;93.17;100730.22;5056633;28;20238;-52
2022/01/20 03:15:54;;;;;;;7.70;2.47;;;;;;;2.29;94.06;100737.78;5056415;28;20328;-54
2022/01/20 03:21:43;;;;;;;6.30;2.23;;;;;;;2.32;95.99;100727.53;5048408;28;20238;-55
2022/01/20 03:24:10;;;;;;;10.37;2.43;;;;;;;2.36;96.04;100731.09;5060762;28;20299;-52
2022/01/20 03:26:38;;;;;;;7.13;1.40;;;;;;;2.38;96.75;100729.41;5056969;28;20678;-52
2022/01/20 03:29:05;;;;;;;8.23;2.40;;;;;;;2.41;97.46;100726.91;5059216;28;20308;-50
2022/01/20 03:31:32;;;;;;;7.30;1.97;;;;;;;2.41;98.47;100723.47;5065048;28;20256;-51
2022/01/20 03:33:58;;;;;;;14.50;2.53;;;;;;;2.36;100.00;100720.72;5063166;28;20241;-52
2022/01/20 03:36:25;;;;;;;11.57;2.23;;;;;;;2.25;100.00;100709.16;5055239;28;20266;-52
2022/01/20 03:38:51;;;;;;;10.90;3.13;;;;;;;2.19;100.00;100703.75;5063354;28;20256;-51
2022/01/20 03:41:19;;;;;;;10.83;3.63;;;;;;;2.16;100.00;100696.78;5065843;28;20238;-52
2022/01/20 03:43:47;;;;;;;13.33;2.90;;;;;;;2.20;100.00;100708.97;5071100;28;20579;-52
2022/01/20 03:46:14;;;;;;;4.90;1.80;;;;;;;2.17;100.00;100701.09;5071436;28;20237;-52
2022/01/20 03:48:49;;;;;;;11.43;2.43;;;;;;;2.29;99.88;100692.88;5070593;28;20676;-52
2022/01/20 03:51:15;;;;;;;10.97;2.40;;;;;;;2.41;99.21;100700.13;5061408;28;20229;-50
2022/01/20 03:53:42;;;;;;;15.20;2.40;;;;;;;2.37;99.32;100691.41;5057355;28;20334;-53
2022/01/20 03:56:09;;;;;;;13.37;2.30;;;;;;;2.41;98.88;100682.88;5063405;28;20238;-53
2022/01/20 03:58:36;;;;;;;10.40;2.73;;;;;;;2.45;97.78;100694.22;5074734;28;20315;-50
2022/01/20 04:01:03;;;;;;;7.23;2.27;;;;;;;2.44;97.86;100688.16;5072947;28;20267;-50
2022/01/20 04:03:30;;;;;;;13.77;2.97;;;;;;;2.40;98.75;100670.75;5066806;28;20260;-50
2022/01/20 04:06:00;;;;;;;12.10;2.40;;;;;;;2.36;97.71;100669.78;5064399;28;20257;-52
2022/01/20 04:08:27;;;;;;;7.50;2.47;;;;;;;2.44;99.29;100656.19;5059326;28;20704;-52
2022/01/20 04:10:54;;;;;;;21.03;3.40;;;;;;;2.38;98.44;100649.97;5068167;28;20269;-52
2022/01/20 04:13:20;;;;;;;15.83;3.30;;;;;;;2.38;98.02;100651.69;5060835;28;20254;-51
2022/01/20 04:15:48;;;;;;;9.50;2.30;;;;;;;2.46;98.06;100654.50;5058967;28;20246;-51
2022/01/20 04:18:21;;;;;;;6.80;2.60;;;;;;;2.51;98.32;100643.47;5067485;28;20233;-49
2022/01/20 04:20:48;;;;;;;10.17;2.93;;;;;;;2.53;98.89;100653.88;5053085;28;20223;-52
2022/01/20 04:23:14;;;;;;;12.80;2.53;;;;;;;2.29;100.00;100698.06;5049145;28;20231;-52
2022/01/20 04:25:40;;;;;;;8.43;3.37;;;;;;;1.98;100.00;100784.22;5044505;28;20255;-49
2022/01/20 04:28:07;;;;;;;5.23;1.47;;;;;;;1.39;100.00;100782.13;5043545;28;20525;-51
2022/01/20 04:30:33;;;;;;;4.17;1.13;;;;;;;0.80;100.00;100793.66;5041196;28;20250;-50
2022/01/20 04:32:59;;;;;;;3.97;1.73;;;;;;;0.56;100.00;100792.69;5038091;28;20258;-51
2022/01/20 04:35:27;;;;;;;7.60;1.57;;;;;;;0.51;100.00;100789.06;5044514;28;20277;-53
2022/01/20 04:37:55;;;;;;;3.37;1.13;;;;;;;0.30;100.00;100795.09;5045087;28;20239;-53
2022/01/20 04:40:22;;;;;;;6.50;1.00;;;;;;;0.21;100.00;100779.22;5044615;28;20329;-53
2022/01/20 04:42:50;;;;;;;7.00;1.40;;;;;;;0.17;100.00;100769.59;5047790;28;20790;-52
2022/01/20 04:45:22;;;;;;;9.10;2.33;;;;;;;0.08;100.00;100743.41;5035857;28;20311;-52
2022/01/20 04:47:56;;;;;;;4.43;1.07;;;;;;;0.05;100.00;100751.03;5044017;28;20446;-54
2022/01/20 04:58:35;;;;;;;7.43;1.53;;;;;;;0.14;100.00;100748.81;5060120;28;20236;-54
2022/01/20 05:01:02;;;;;;;1.77;0.90;;;;;;;0.15;100.00;100735.09;5061979;28;20642;-53
2022/01/20 05:03:28;;;;;;;6.50;2.00;;;;;;;0.12;100.00;100758.22;5059234;28;20787;-54
2022/01/20 05:05:55;;;;;;;6.17;1.40;;;;;;;0.23;100.00;100756.94;5060012;28;20291;-53
2022/01/20 05:08:24;;;;;;;5.47;1.40;;;;;;;0.29;100.00;100746.88;5056361;28;20302;-52
2022/01/20 05:10:52;;;;;;;6.40;1.97;;;;;;;0.29;100.00;100762.38;5064390;28;20753;-53
2022/01/20 05:13:24;;;;;;;6.73;2.37;;;;;;;0.23;100.00;100767.28;5065066;28;20295;-53
2022/01/20 05:15:51;;;;;;;5.03;1.30;;;;;;;0.37;100.00;100760.97;5060697;28;20238;-53
2022/01/20 05:18:18;;;;;;;7.07;1.73;;;;;;;0.34;100.00;100759.97;5058315;28;20253;-52
2022/01/20 05:20:44;;;;;;;9.77;1.33;;;;;;;0.42;100.00;100759.47;5062574;28;20695;-53
2022/01/20 05:23:10;;;;;;;9.73;1.67;;;;;;;0.41;100.00;100749.94;5055806;28;20312;-52
2022/01/20 05:25:38;;;;;;;7.27;2.20;;;;;;;0.52;100.00;100752.06;5057387;28;20335;-52
2022/01/20 05:28:05;;;;;;;4.43;1.97;;;;;;;0.47;100.00;100736.41;5065200;28;20316;-53
2022/01/20 05:30:31;;;;;;;9.80;1.87;;;;;;;0.56;100.00;100741.03;5066602;28;20517;-53
2022/01/20 05:32:59;;;;;;;3.10;1.53;;;;;;;0.52;100.00;100728.81;5058401;28;20257;-51
2022/01/20 05:35:26;;;;;;;8.13;1.90;;;;;;;0.52;100.00;100726.22;5064929;28;20239;-51
2022/01/20 05:37:52;;;;;;;8.63;2.17;;;;;;;0.64;100.00;100722.44;5062065;28;20255;-53
2022/01/20 05:40:19;;;;;;;5.70;1.70;;;;;;;0.59;100.00;100731.69;5064529;28;20230;-53
2022/01/20 05:42:46;;;;;;;6.13;1.67;;;;;;;0.65;100.00;100728.47;5060064;28;20726;-48
2022/01/20 05:45:13;;;;;;;8.07;2.43;;;;;;;0.71;100.00;100736.47;5064732;28;20331;-53
2022/01/20 05:47:44;;;;;;;9.83;1.63;;;;;;;0.64;100.00;100749.97;5062226;28;20321;-49
2022/01/20 05:50:11;;;;;;;8.30;2.17;;;;;;;0.60;100.00;100742.94;5051713;28;20234;-52
2022/01/20 05:52:41;;;;;;;8.87;1.90;;;;;;;0.67;100.00;100744.94;5063422;28;20613;-52
2022/01/20 05:55:09;;;;;;;6.47;1.53;;;;;;;0.74;100.00;100746.94;5054911;28;20640;-50
2022/01/20 05:57:36;;;;;;;7.10;1.67;;;;;;;0.68;100.00;100754.44;5063794;28;20307;-54
2022/01/20 06:00:04;;;;;;;8.93;1.67;;;;;;;0.81;100.00;100743.75;5065571;28;20613;-54
2022/01/20 06:02:35;;;;;;;5.60;1.90;;;;;;;0.78;100.00;100746.22;5055086;28;20518;-50
2022/01/20 06:05:02;;;;;;;9.20;1.70;;;;;;;0.84;100.00;100759.41;5060899;28;21333;-51
2022/01/20 06:07:28;;;;;;;9.63;2.80;;;;;;;0.84;100.00;100768.81;5062757;28;20271;-53
2022/01/20 06:09:55;;;;;;;16.63;2.10;;;;;;;0.87;100.00;100781.88;5062339;28;20276;-51
2022/01/20 06:12:21;;;;;;;4.20;1.20;;;;;;;0.92;100.00;100782.94;5062817;28;20256;-51
2022/01/20 06:14:47;;;;;;;2.97;1.60;;;;;;;1.02;98.38;100791.91;5062222;28;20295;-52
2022/01/20 06:17:15;;;;;;;12.07;1.80;;;;;;;0.90;100.00;100793.19;5062316;28;20258;-53
2022/01/20 06:19:42;;;;;;;6.53;1.40;;;;;;;0.85;100.00;100802.50;5079703;28;20702;-52
2022/01/20 06:22:13;;;;;;;4.70;1.37;;;;;;;0.94;97.31;100799.38;5073295;28;20230;-52
2022/01/20 06:24:40;;;;;;;7.13;1.47;;;;;;;1.05;90.07;100816.16;5059456;28;20226;-54
2022/01/20 06:27:06;;;;;;;2.90;1.00;;;;;;;0.99;88.24;100812.50;5071578;28;20246;-53
2022/01/20 06:29:33;;;;;;;6.87;1.80;;;;;;;0.93;84.81;100806.25;5072998;28;20246;-53
2022/01/20 06:31:59;;;;;;;4.43;1.40;;;;;;;0.92;84.48;100813.97;5061516;28;20235;-51
2022/01/20 06:34:27;;;;;;;2.57;1.40;;;;;;;0.92;81.62;100816.53;5062879;28;20229;-52
2022/01/20 06:36:53;;;;;;;6.53;1.23;;;;;;;0.89;80.00;100840.56;5058713;28;20748;-52
2022/01/20 06:39:19;;;;;;;3.40;1.03;;;;;;;0.88;76.65;100838.81;5062729;28;20279;-51
2022/01/20 06:41:46;;;;;;;3.27;1.67;;;;;;;0.85;77.34;100854.19;5065099;28;20239;-49
2022/01/20 06:44:12;;;;;;;7.63;1.93;;;;;;;0.83;79.06;100842.88;5062769;28;20239;-51
2022/01/20 06:46:39;;;;;;;6.47;1.90;;;;;;;0.77;75.83;100858.13;5054798;28;20232;-50
2022/01/20 06:49:05;;;;;;;6.10;1.20;;;;;;;0.76;75.70;100869.31;5062781;28;20234;-54
2022/01/20 06:51:33;;;;;;;7.43;1.17;;;;;;;0.79;74.23;100864.28;5060464;28;20240;-51
2022/01/20 06:54:00;;;;;;;3.70;1.33;;;;;;;0.72;73.05;100882.94;5062763;28;20585;-51
2022/01/20 06:56:26;;;;;;;4.50;1.80;;;;;;;0.76;73.25;100894.28;5049443;28;20249;-49
2022/01/20 06:58:53;;;;;;;3.70;1.50;;;;;;;0.75;72.24;100908.91;5055995;28;20239;-49
2022/01/20 07:01:20;;;;;;;2.30;1.23;;;;;;;0.72;72.63;100903.59;5061749;28;20258;-52
2022/01/20 07:03:47;;;;;;;7.10;2.53;;;;;;;0.65;72.80;100905.03;5054211;28;20244;-50
2022/01/20 07:06:13;;;;;;;10.30;1.10;;;;;;;0.73;73.78;100907.94;5061229;28;20299;-52
2022/01/20 07:08:41;;;;;;;3.67;1.13;;;;;;;0.79;73.91;100908.19;5061569;28;20240;-50
2022/01/20 07:11:07;;;;;;;5.80;1.00;;;;;;;0.81;75.34;100914.31;5061397;28;20259;-50
2022/01/20 07:13:35;;;;;;;3.03;1.13;;;;;;;0.86;74.35;100924.84;5067377;28;20238;-51
2022/01/20 07:16:01;;;;;;;4.87;1.47;;;;;;;0.90;72.93;100929.31;5069762;28;20239;-52
2022/01/20 07:18:28;;;;;;;4.10;1.20;;;;;;;0.92;71.32;100938.03;5069179;28;20230;-52
2022/01/20 07:20:55;;;;;;;7.57;1.17;;;;;;;0.89;72.17;100943.94;5061257;28;20227;-51
2022/01/20 07:23:21;;;;;;;1.37;1.27;;;;;;;0.98;72.37;100950.31;5060279;28;20327;-50
2022/01/20 07:25:49;;;;;;;8.43;1.57;;;;;;;0.90;72.80;100957.75;5053364;28;20682;-50
2022/01/20 07:28:15;;;;;;;2.57;1.07;;;;;;;0.92;73.56;100977.69;5063765;28;20972;-53
2022/01/20 07:30:42;;;;;;;3.23;1.30;;;;;;;0.81;75.00;100986.69;5047215;28;20285;-51
2022/01/20 07:33:08;;;;;;;6.63;1.70;;;;;;;0.79;74.76;100988.31;5036842;28;20238;-51
2022/01/20 07:35:35;;;;;;;4.27;1.20;;;;;;;0.78;75.68;100986.56;5030887;28;20235;-51
2022/01/20 07:38:02;;;;;;;6.93;1.80;;;;;;;0.65;77.57;100999.75;5051929;28;20251;-52
2022/01/20 07:40:29;;;;;;;3.70;1.40;;;;;;;0.73;77.12;100990.63;5075244;28;20234;-49
2022/01/20 07:42:57;;;;;;;4.90;1.10;;;;;;;0.67;76.92;100988.69;5066336;28;20314;-51
2022/01/20 07:45:24;;;;;;;6.57;1.67;;;;;;;0.66;77.48;100996.34;5062101;28;20252;-50
2022/01/20 07:47:50;;;;;;;3.73;1.20;;;;;;;0.66;77.18;100996.34;5059941;28;20262;-50
2022/01/20 07:50:16;;;;;;;5.67;2.03;;;;;;;0.59;78.06;100995.19;5066532;28;20653;-51
2022/01/20 07:52:43;;;;;;;3.20;1.53;;;;;;;0.64;76.48;100987.66;5055842;28;20291;-48
2022/01/20 07:55:10;;;;;;;6.57;1.43;;;;;;;0.64;76.57;100987.66;5065826;28;20295;-50
2022/01/20 07:57:37;;;;;;;3.57;1.33;;;;;;;0.75;76.46;100994.16;5065120;28;20297;-49
2022/01/20 08:00:06;;;;;;;3.60;1.30;;;;;;;0.71;74.53;101002.63;5052774;28;20255;-53
2022/01/20 08:02:33;;;;;;;5.67;1.67;;;;;;;0.79;73.89;100998.66;5061229;28;20300;-51
2022/01/20 08:04:59;;;;;;;7.43;1.70;;;;;;;0.85;76.56;101005.78;5065321;28;20291;-50
2022/01/20 08:07:26;;;;;;;5.97;1.70;;;;;;;0.86;73.77;101016.19;5056630;28;20555;-51
2022/01/20 08:09:57;;;;;;;7.63;1.73;;;;;;;0.76;74.85;101019.19;5066366;28;20255;-53
2022/01/20 08:12:23;;;;;;;2.27;1.30;;;;;;;0.85;76.30;101027.34;5060436;28;20330;-51
2022/01/20 08:14:50;;;;;;;11.83;2.73;;;;;;;0.94;74.79;101027.72;5062569;28;20540;-52
2022/01/20 08:17:17;;;;;;;10.47;2.13;;;;;;;1.02;73.57;101019.41;5061192;28;20266;-52
2022/01/20 08:19:44;;;;;;;7.07;1.70;;;;;;;1.00;73.04;101031.41;5065169;28;20265;-54
2022/01/20 08:22:11;;;;;;;10.37;1.70;;;;;;;0.98;73.64;101033.03;5062771;28;20242;-55
2022/01/20 08:24:37;;;;;;;16.40;2.23;;;;;;;1.00;72.45;101028.81;5061571;28;20235;-50
2022/01/20 08:27:04;;;;;;;10.03;2.40;;;;;;;0.88;74.38;101039.53;5060121;28;20253;-48
2022/01/20 08:29:31;;;;;;;7.83;1.77;;;;;;;0.91;73.09;101043.13;5057146;28;20670;-50
2022/01/20 08:31:57;;;;;;;6.97;2.00;;;;;;;1.09;72.60;101049.88;5053374;28;20289;-51
2022/01/20 08:34:25;;;;;;;8.83;2.33;;;;;;;1.10;72.40;101044.78;5051486;28;20747;-51
2022/01/20 08:36:55;;;;;;;7.93;1.97;;;;;;;1.17;71.06;101046.81;5055397;28;20249;-53
2022/01/20 08:42:04;;;;;;;7.97;1.67;;;;;;;1.20;71.10;101035.72;5065384;28;20273;-52
2022/01/20 08:44:31;;;;;;;11.73;4.93;;;;;;;1.22;70.39;101046.09;5052345;28;20667;-51
2022/01/20 08:46:58;;;;;;;9.83;2.67;;;;;;;1.29;71.51;101051.59;5068005;28;20700;-52
2022/01/20 08:49:26;;;;;;;14.17;2.63;;;;;;;1.37;70.86;101044.13;5067712;28;20238;-53
2022/01/20 08:51:53;;;;;;;11.40;2.50;;;;;;;1.45;69.81;101066.06;5069203;28;20571;-53
2022/01/20 08:54:19;;;;;;;10.63;1.97;;;;;;;1.49;68.52;101056.72;5065303;28;20304;-51
2022/01/20 08:56:47;;;;;;;4.37;1.70;;;;;;;1.56;68.79;101071.66;5050996;28;20367;-52
2022/01/20 08:59:13;;;;;;;12.13;2.47;;;;;;;1.61;69.21;101057.19;5067203;28;20655;-54
2022/01/20 09:01:41;;;;;;;7.57;2.70;;;;;;;1.74;69.88;101066.34;5064728;28;20242;-53
2022/01/20 09:04:08;;;;;;;6.43;2.20;;;;;;;1.79;68.69;101051.88;5063979;28;20593;-52
2022/01/20 09:06:36;;;;;;;13.03;2.43;;;;;;;1.93;69.31;101066.25;5056806;28;20261;-52
2022/01/20 09:09:03;;;;;;;9.33;2.53;;;;;;;2.04;69.29;101051.13;5062493;28;20241;-51
2022/01/20 09:11:36;;;;;;;4.10;2.40;;;;;;;2.09;69.04;101047.88;5056986;28;20231;-54
2022/01/20 09:16:47;;;;;;;7.07;2.17;;;;;;;2.05;69.21;101066.72;5054155;28;20683;-53
2022/01/20 09:19:13;;;;;;;8.00;2.50;;;;;;;2.04;69.78;101058.91;5056733;28;20307;-50
2022/01/20 09:21:41;;;;;;;6.70;2.53;;;;;;;2.08;69.02;101061.66;5057691;28;20334;-50
2022/01/20 09:24:08;;;;;;;8.40;3.73;;;;;;;1.96;69.96;101065.47;5055209;28;20719;-52
2022/01/20 09:26:34;;;;;;;4.33;1.60;;;;;;;1.98;70.70;101069.03;5055481;28;20243;-52
2022/01/20 09:29:01;;;;;;;11.30;1.70;;;;;;;1.96;71.31;101065.47;5055158;28;20501;-51
2022/01/20 09:31:30;;;;;;;7.17;1.90;;;;;;;1.95;72.10;101074.06;5056782;28;20235;-51
2022/01/20 09:33:57;;;;;;;15.33;2.83;;;;;;;1.86;71.81;101074.59;5058836;28;20234;-51
2022/01/20 09:36:24;;;;;;;15.07;2.63;;;;;;;1.89;73.67;101075.59;5055794;28;20632;-52
2022/01/20 09:38:52;;;;;;;8.20;1.60;;;;;;;1.90;72.35;101087.72;5058431;28;20291;-52
2022/01/20 09:41:18;;;;;;;10.17;2.50;;;;;;;1.94;72.36;101096.50;5046732;28;20251;-52
2022/01/20 09:43:44;;;;;;;9.37;2.63;;;;;;;1.97;72.78;101093.16;5060751;28;20241;-51
2022/01/20 09:46:11;;;;;;;8.43;2.17;;;;;;;2.01;72.93;101095.91;5054567;28;20769;-55
2022/01/20 09:48:37;;;;;;;4.87;1.47;;;;;;;2.00;72.56;101091.56;5057262;28;20231;-53
2022/01/20 09:51:04;;;;;;;14.23;2.53;;;;;;;2.06;72.54;101098.69;5059848;28;20321;-54
2022/01/20 09:53:31;;;;;;;13.10;2.70;;;;;;;2.02;71.76;101097.69;5054131;28;20238;-50
2022/01/20 09:55:59;;;;;;;6.90;2.73;;;;;;;2.07;72.89;101087.47;5050449;28;20315;-53
2022/01/20 09:58:25;;;;;;;10.97;2.80;;;;;;;2.08;72.52;101097.03;5059632;28;20561;-52
2022/01/20 10:00:52;;;;;;;7.23;2.87;;;;;;;2.14;73.65;101102.44;5056316;28;20254;-50
2022/01/20 10:03:20;;;;;;;11.80;2.93;;;;;;;2.13;71.15;101103.28;5052894;28;20265;-50
2022/01/20 10:05:49;;;;;;;15.57;2.57;;;;;;;2.06;72.82;101106.44;5060009;28;21950;-50
2022/01/20 10:08:17;;;;;;;6.10;2.57;;;;;;;2.10;71.85;101105.75;5055232;28;20235;-49
2022/01/20 10:10:49;;;;;;;6.73;2.13;;;;;;;2.13;71.11;101111.91;5061554;28;20602;-52
2022/01/20 10:13:19;;;;;;;5.97;2.40;;;;;;;2.19;72.43;101110.41;5054575;28;20242;-51
2022/01/20 10:16:06;;;;;;;17.03;2.93;;;;;;;2.21;71.85;101114.84;5051358;28;20222;-51
2022/01/20 10:18:35;;;;;;;12.73;2.23;;;;;;;2.29;71.05;101113.41;5055917;28;20250;-49
2022/01/20 10:21:04;;;;;;;11.70;2.90;;;;;;;2.24;70.27;101111.47;5050607;28;20265;-53
2022/01/20 10:23:36;;;;;;;6.33;1.83;;;;;;;2.26;70.78;101117.59;5058463;28;20226;-51
2022/01/20 10:26:14;;;;;;;6.63;2.20;;;;;;;2.29;70.26;101117.72;5057637;28;20629;-50
2022/01/20 10:28:47;;;;;;;6.90;1.90;;;;;;;2.45;69.35;101129.53;5050478;28;21081;-52
2022/01/20 10:31:15;;;;;;;6.07;2.23;;;;;;;2.29;69.00;101121.19;5051786;28;20261;-53
2022/01/20 10:33:41;;;;;;;3.53;1.70;;;;;;;2.34;68.51;101127.41;5060263;28;20685;-51
2022/01/20 10:36:08;;;;;;;6.70;2.13;;;;;;;2.28;72.68;101110.75;5058844;28;20320;-52
2022/01/20 10:38:34;;;;;;;12.43;2.30;;;;;;;2.35;71.54;101111.06;5060529;28;20227;-52
2022/01/20 10:41:02;;;;;;;10.32;4.03;;;;;;;2.47;69.84;101114.94;5057774;28;20452;-53
2022/01/20 10:43:31;;;;;;;9.07;2.97;;;;;;;2.38;69.50;101118.06;5057890;28;20238;-51
2022/01/20 10:46:04;;;;;;;8.77;2.17;;;;;;;2.44;70.34;101107.03;5053489;28;20626;-50
2022/01/20 10:48:30;;;;;;;11.38;2.45;;;;;;;2.46;69.11;101118.34;5057941;28;20455;-49
2022/01/20 10:50:56;;;;;;;16.70;3.43;;;;;;;2.54;71.38;101115.22;5057526;28;20292;-52
2022/01/20 10:53:24;;;;;;;9.77;2.10;;;;;;;2.45;70.91;101119.16;5064728;28;20876;-53
2022/01/20 10:55:51;;;;;;;11.30;3.07;;;;;;;2.55;69.91;101122.16;5066329;28;20310;-51
2022/01/20 10:58:22;;;;;;;13.67;2.80;;;;;;;2.58;70.29;101118.81;5064395;28;20291;-47
2022/01/20 11:00:50;;;;;;;13.60;2.90;;;;;;;2.52;70.13;101115.97;5064453;28;20295;-50
2022/01/20 11:03:18;;;;;;;14.07;2.70;;;;;;;2.46;70.76;101105.38;5056010;28;20727;-50
2022/01/20 11:05:49;;;;;;;11.33;3.00;;;;;;;2.49;71.52;101113.28;5060559;28;20894;-53
2022/01/20 11:08:17;;;;;;;10.63;2.23;;;;;;;2.50;69.54;101113.34;5052397;28;20238;-52
2022/01/20 11:10:43;;;;;;;6.20;2.20;;;;;;;2.47;70.02;101112.34;5062345;28;20291;-52
2022/01/20 11:13:10;;;;;;;8.80;2.70;;;;;;;2.46;70.18;101114.06;5055180;28;20240;-50
2022/01/20 11:15:37;;;;;;;8.35;2.83;;;;;;;2.35;69.70;101108.47;5056453;28;20439;-50
2022/01/20 11:18:04;;;;;;;10.37;2.43;;;;;;;2.35;68.76;101108.47;5052219;28;20722;-51
2022/01/20 11:20:40;;;;;;;8.83;2.53;;;;;;;2.30;68.93;101120.34;5057031;28;20321;-52
2022/01/20 11:23:07;;;;;;;10.50;2.88;;;;;;;2.38;67.97;101103.38;5056869;28;20707;-50
2022/01/20 11:25:35;;;;;;;10.50;2.43;;;;;;;2.42;69.14;101096.59;5060522;28;20246;-48
2022/01/20 11:28:05;;;;;;;8.70;2.63;;;;;;;2.37;69.33;101112.00;5066252;28;20288;-52
2022/01/20 11:30:33;;;;;;;10.67;2.10;;;;;;;2.34;68.82;101108.41;5064747;28;20229;-50
2022/01/20 11:33:01;;;;;;;6.80;1.83;;;;;;;2.34;68.88;101106.69;5063561;28;20239;-51
2022/01/20 11:35:41;;;;;;;6.43;2.07;;;;;;;2.43;68.11;101107.88;5065037;28;20234;-51
2022/01/20 11:38:08;;;;;;;9.57;2.00;;;;;;;2.54;66.99;101115.22;5054792;28;20235;-51
2022/01/20 11:40:36;;;;;;;8.80;2.37;;;;;;;2.65;66.51;101115.63;5062203;28;20702;-51
2022/01/20 11:43:06;;;;;;;2.40;1.53;;;;;;;2.72;67.41;101115.03;5064308;28;20287;-52
2022/01/20 11:45:35;;;;;;;3.90;1.63;;;;;;;2.74;66.42;101107.28;5068308;28;20321;-51
2022/01/20 11:48:15;;;;;;;7.97;1.67;;;;;;;2.74;64.55;101105.59;5072801;28;20292;-50
2022/01/20 11:50:44;;;;;;;9.20;2.47;;;;;;;2.75;65.20;101098.72;5070297;28;20233;-54
2022/01/20 11:53:12;;;;;;;12.33;3.50;;;;;;;2.62;66.08;101124.16;5063839;28;20229;-52
2022/01/20 11:55:44;;;;;;;11.20;2.57;;;;;;;2.63;64.67;101117.25;5062752;28;20280;-52
2022/01/20 11:58:11;;;;;;;7.73;2.27;;;;;;;2.67;64.52;101116.56;5055030;28;20315;-50
2022/01/20 12:00:37;;;;;;;10.27;2.37;;;;;;;2.70;65.16;101111.47;5064358;28;20243;-53
2022/01/20 12:03:09;;;;;;;8.57;2.03;;;;;;;2.66;65.68;101111.31;5073384;28;20909;-50
2022/01/20 12:05:36;;;;;;;5.93;2.17;;;;;;;2.69;64.79;101109.72;5071608;28;20249;-53
2022/01/20 12:08:11;;;;;;;6.43;2.13;;;;;;;2.69;65.13;101124.41;5070976;28;20230;-51
2022/01/20 12:10:38;;;;;;;13.17;2.57;;;;;;;2.76;65.82;101116.91;5067397;28;20248;-53
2022/01/20 12:13:09;;;;;;;6.53;1.73;;;;;;;2.83;64.54;101112.81;5059694;28;20314;-51
2022/01/20 12:15:47;;;;;;;3.47;1.83;;;;;;;2.90;65.43;101100.97;5059055;28;20265;-52
2022/01/20 12:18:14;;;;;;;10.13;3.10;;;;;;;2.93;65.27;101098.47;5063023;28;20238;-52
2022/01/20 12:20:40;;;;;;;7.17;3.40;;;;;;;2.93;64.49;101098.47;5061479;28;20240;-51
2022/01/20 12:23:08;;;;;;;5.27;1.80;;;;;;;2.93;64.89;101108.84;5065785;28;20259;-49